Time;durP1;ratioP1;P1;durP2;ratioP2;P2;SDS_P1;SDS_P2;PMS_P1;PMS_P2;Temp;Humidity;BMP_temperature;BMP_pressure;BME280_temperature;BME280_humidity;BME280_pressure;Samples;Min_cycle;Max_cycle;Signal;HPM_P1;HPM_P2
2021/04/11 00:00:21;;;;;;;2.00;1.88;;;;;;;;;;5090777;28;20028;-77
2021/04/11 00:02:47;;;;;;;2.17;2.03;;;;;;;;;;5090225;28;20028;-77
2021/04/11 00:05:14;;;;;;;2.72;1.63;;;;;;;;;;5089425;28;21152;-77
2021/04/11 00:07:40;;;;;;;2.58;2.38;;;;;;;;;;5090007;28;20032;-77
2021/04/11 00:10:07;;;;;;;4.68;3.03;;;;;;;;;;5089984;28;20020;-77
2021/04/11 00:12:33;;;;;;;2.58;2.38;;;;;;;;;;5090254;28;20028;-77
2021/04/11 00:14:59;;;;;;;1.95;1.67;;;;;;;;;;5089188;28;20081;-76
2021/04/11 00:17:25;;;;;;;2.95;2.30;;;;;;;;;;5090141;28;20168;-77
2021/04/11 00:19:51;;;;;;;2.20;1.80;;;;;;;;;;5091339;28;20031;-77
2021/04/11 00:22:17;;;;;;;3.50;2.35;;;;;;;;;;5089336;28;20032;-76
2021/04/11 00:24:43;;;;;;;2.20;2.00;;;;;;;;;;5090445;28;20026;-77
2021/04/11 00:27:10;;;;;;;2.60;1.73;;;;;;;;;;5089654;28;20032;-77
2021/04/11 00:29:36;;;;;;;2.63;2.05;;;;;;;;;;5091035;28;20470;-77
2021/04/11 00:32:02;;;;;;;2.78;1.92;;;;;;;;;;5089004;28;20036;-76
2021/04/11 00:34:28;;;;;;;2.22;1.95;;;;;;;;;;5090039;28;20431;-77
2021/04/11 00:36:54;;;;;;;2.00;1.77;;;;;;;;;;5088876;28;20039;-76
2021/04/11 00:39:20;;;;;;;3.00;2.67;;;;;;;;;;5089465;28;20095;-77
2021/04/11 00:41:48;;;;;;;2.63;2.42;;;;;;;;;;5089487;28;20024;-77
2021/04/11 00:44:15;;;;;;;2.50;2.28;;;;;;;;;;5089327;28;20450;-77
2021/04/11 00:46:41;;;;;;;3.70;2.13;;;;;;;;;;5090052;28;20063;-77
2021/04/11 00:49:09;;;;;;;2.25;2.00;;;;;;;;;;5090078;28;20056;-77
2021/04/11 00:51:35;;;;;;;2.47;1.90;;;;;;;;;;5089365;28;20035;-77
2021/04/11 00:54:03;;;;;;;2.95;2.40;;;;;;;;;;5089445;28;20020;-76
2021/04/11 00:56:30;;;;;;;1.85;1.75;;;;;;;;;;5089935;28;20498;-77
2021/04/11 00:58:56;;;;;;;3.35;1.95;;;;;;;;;;5090222;28;20032;-76
2021/04/11 01:01:22;;;;;;;2.45;1.70;;;;;;;;;;5089305;28;20059;-77
2021/04/11 01:03:49;;;;;;;2.13;2.00;;;;;;;;;;5089416;28;20032;-77
2021/04/11 01:06:20;;;;;;;3.60;2.28;;;;;;;;;;5086842;28;20062;-77
2021/04/11 01:08:47;;;;;;;1.60;1.50;;;;;;;;;;5089393;28;20047;-77
2021/04/11 01:11:14;;;;;;;1.30;1.20;;;;;;;;;;5088559;28;20023;-77
2021/04/11 01:13:44;;;;;;;1.67;1.55;;;;;;;;;;5089826;28;20107;-77
2021/04/11 01:16:10;;;;;;;1.90;1.75;;;;;;;;;;5088877;28;20225;-77
2021/04/11 01:18:37;;;;;;;2.97;1.85;;;;;;;;;;5087808;28;20039;-77
2021/04/11 01:21:06;;;;;;;1.58;1.48;;;;;;;;;;5087290;28;20115;-76
2021/04/11 01:23:35;;;;;;;1.67;1.50;;;;;;;;;;5088151;28;20028;-77
2021/04/11 01:26:01;;;;;;;1.70;1.58;;;;;;;;;;5087452;28;20429;-77
2021/04/11 01:28:34;;;;;;;2.53;2.25;;;;;;;;;;5088753;28;20598;-77
2021/04/11 01:31:07;;;;;;;1.70;1.60;;;;;;;;;;5087555;28;20035;-77
2021/04/11 01:33:35;;;;;;;3.00;1.53;;;;;;;;;;5088942;28;20756;-77
2021/04/11 01:36:03;;;;;;;2.15;1.95;;;;;;;;;;5087059;28;20269;-77
2021/04/11 01:38:29;;;;;;;1.77;1.67;;;;;;;;;;5087982;28;20506;-77
2021/04/11 01:40:55;;;;;;;1.90;1.77;;;;;;;;;;5088833;28;20028;-77
2021/04/11 01:43:23;;;;;;;1.65;1.55;;;;;;;;;;5087786;28;20023;-77
2021/04/11 01:45:49;;;;;;;1.73;1.58;;;;;;;;;;5088746;28;20119;-77
2021/04/11 01:48:16;;;;;;;1.73;1.63;;;;;;;;;;5088143;28;20040;-77
2021/04/11 01:50:43;;;;;;;1.52;1.40;;;;;;;;;;5088198;28;20024;-77
2021/04/11 01:53:10;;;;;;;2.15;1.52;;;;;;;;;;5087346;28;20032;-77
2021/04/11 01:55:36;;;;;;;1.58;1.48;;;;;;;;;;5088685;28;20297;-77
2021/04/11 01:58:02;;;;;;;1.40;1.30;;;;;;;;;;5085754;28;20107;-76
2021/04/11 02:00:37;;;;;;;1.83;1.70;;;;;;;;;;5089409;28;20446;-77
2021/04/11 02:03:08;;;;;;;1.85;1.50;;;;;;;;;;5088203;28;20024;-77
2021/04/11 02:05:37;;;;;;;3.35;2.28;;;;;;;;;;5087740;28;20475;-77
2021/04/11 02:08:04;;;;;;;2.00;1.80;;;;;;;;;;5086988;28;20059;-76
2021/04/11 02:10:32;;;;;;;1.70;1.30;;;;;;;;;;5088669;28;20063;-77
2021/04/11 02:12:58;;;;;;;1.77;1.58;;;;;;;;;;5087791;28;20654;-76
2021/04/11 02:15:30;;;;;;;1.33;1.23;;;;;;;;;;5088668;28;20078;-77
2021/04/11 02:17:57;;;;;;;2.40;1.60;;;;;;;;;;5088122;28;20111;-76
2021/04/11 02:20:25;;;;;;;1.13;1.02;;;;;;;;;;5088665;28;20078;-77
2021/04/11 02:22:51;;;;;;;1.35;1.10;;;;;;;;;;5088562;28;20441;-77
2021/04/11 02:25:19;;;;;;;1.65;1.25;;;;;;;;;;5087488;28;20110;-77
2021/04/11 02:27:46;;;;;;;1.10;0.93;;;;;;;;;;5088467;28;20039;-77
2021/04/11 02:30:13;;;;;;;1.67;1.42;;;;;;;;;;5088479;28;20030;-77
2021/04/11 02:32:40;;;;;;;1.02;0.82;;;;;;;;;;5087515;28;20048;-77
2021/04/11 02:35:08;;;;;;;1.20;1.20;;;;;;;;;;5087571;28;20034;-77
2021/04/11 02:37:36;;;;;;;1.15;1.02;;;;;;;;;;5087724;28;20138;-77
2021/04/11 02:40:05;;;;;;;1.30;1.20;;;;;;;;;;5086743;28;20072;-77
2021/04/11 02:42:34;;;;;;;3.20;1.75;;;;;;;;;;5087909;28;20028;-77
2021/04/11 02:45:23;;;;;;;2.40;1.98;;;;;;;;;;5086997;28;20494;-76
2021/04/11 02:47:51;;;;;;;1.67;1.58;;;;;;;;;;5077103;28;20047;-77
2021/04/11 02:50:17;;;;;;;2.45;1.30;;;;;;;;;;5087795;28;20056;-77
2021/04/11 02:52:52;;;;;;;1.48;1.38;;;;;;;;;;5087819;28;20042;-77
2021/04/11 02:55:18;;;;;;;1.38;1.25;;;;;;;;;;5069555;28;20127;-77
2021/04/11 02:57:44;;;;;;;1.40;1.30;;;;;;;;;;5087580;28;20420;-77
2021/04/11 03:00:13;;;;;;;1.25;1.15;;;;;;;;;;5086984;28;20032;-77
2021/04/11 03:02:40;;;;;;;1.58;1.48;;;;;;;;;;5087533;28;20042;-77
2021/04/11 03:05:06;;;;;;;1.00;0.93;;;;;;;;;;5086625;28;20051;-77
2021/04/11 03:07:36;;;;;;;1.17;1.08;;;;;;;;;;5086286;28;20051;-77
2021/04/11 03:10:05;;;;;;;3.08;1.63;;;;;;;;;;5087609;28;20024;-76
2021/04/11 03:12:32;;;;;;;2.90;1.20;;;;;;;;;;5087326;28;20058;-77
2021/04/11 03:14:59;;;;;;;1.88;1.27;;;;;;;;;;5087713;28;20028;-77
2021/04/11 03:17:26;;;;;;;2.30;1.40;;;;;;;;;;5087101;28;20039;-77
2021/04/11 03:20:01;;;;;;;1.58;1.42;;;;;;;;;;5088021;28;20031;-77
2021/04/11 03:22:27;;;;;;;2.90;1.52;;;;;;;;;;5087670;28;20036;-77
2021/04/11 03:24:54;;;;;;;1.23;1.00;;;;;;;;;;5087463;28;20028;-77
2021/04/11 03:27:23;;;;;;;1.05;0.90;;;;;;;;;;5086150;28;20039;-77
2021/04/11 03:29:55;;;;;;;1.13;1.02;;;;;;;;;;5090548;28;20021;-76
2021/04/11 03:32:23;;;;;;;1.20;1.10;;;;;;;;;;5090855;28;20380;-76
2021/04/11 03:34:51;;;;;;;2.35;2.15;;;;;;;;;;5091512;28;20490;-76
2021/04/11 03:37:17;;;;;;;1.40;1.30;;;;;;;;;;5089994;28;20130;-76
2021/04/11 03:39:43;;;;;;;1.33;1.23;;;;;;;;;;5091093;28;20048;-76
2021/04/11 03:42:13;;;;;;;1.48;1.35;;;;;;;;;;5090124;28;20036;-76
2021/04/11 03:44:39;;;;;;;2.28;1.77;;;;;;;;;;5091152;28;20032;-77
2021/04/11 03:47:18;;;;;;;1.27;1.10;;;;;;;;;;5090651;28;20028;-76
2021/04/11 03:50:02;;;;;;;1.90;1.77;;;;;;;;;;5071095;28;20025;-76
2021/04/11 03:52:32;;;;;;;2.50;1.75;;;;;;;;;;5070823;28;20032;-76
2021/04/11 03:55:01;;;;;;;2.67;1.30;;;;;;;;;;5052694;28;20587;-76
2021/04/11 03:57:30;;;;;;;2.38;1.05;;;;;;;;;;5070457;28;20062;-76
2021/04/11 04:00:03;;;;;;;2.58;1.92;;;;;;;;;;5070325;28;20283;-75
2021/04/11 04:02:31;;;;;;;2.55;1.52;;;;;;;;;;5070229;28;20498;-76
2021/04/11 04:04:59;;;;;;;1.40;1.10;;;;;;;;;;5069480;28;20047;-76
2021/04/11 04:07:25;;;;;;;0.98;0.98;;;;;;;;;;5069767;28;20037;-76
2021/04/11 04:09:54;;;;;;;1.52;1.42;;;;;;;;;;5070888;28;20051;-76
2021/04/11 04:12:37;;;;;;;0.80;0.80;;;;;;;;;;5070047;28;20065;-76
2021/04/11 04:15:22;;;;;;;1.13;1.08;;;;;;;;;;5070222;28;20033;-76
2021/04/11 04:18:03;;;;;;;1.50;1.40;;;;;;;;;;5070102;28;20337;-76
2021/04/11 04:20:53;;;;;;;1.02;0.98;;;;;;;;;;5070086;28;20032;-76
2021/04/11 04:23:30;;;;;;;2.15;1.10;;;;;;;;;;5061651;28;20155;-76
2021/04/11 04:26:05;;;;;;;4.53;1.83;;;;;;;;;;5069692;28;20514;-75
2021/04/11 04:28:34;;;;;;;1.45;1.35;;;;;;;;;;5069727;28;20043;-76
2021/04/11 04:31:02;;;;;;;0.82;0.82;;;;;;;;;;5069890;28;20567;-75
2021/04/11 04:33:47;;;;;;;1.40;1.30;;;;;;;;;;5069663;28;20048;-76
2021/04/11 04:36:15;;;;;;;1.20;1.10;;;;;;;;;;5068643;28;20347;-76
2021/04/11 04:38:59;;;;;;;1.50;1.40;;;;;;;;;;5068437;28;20118;-76
2021/04/11 04:41:34;;;;;;;2.17;1.38;;;;;;;;;;5069305;28;20501;-76
2021/04/11 04:44:00;;;;;;;1.27;1.17;;;;;;;;;;5069792;28;20453;-75
2021/04/11 04:46:39;;;;;;;1.50;1.40;;;;;;;;;;5069789;28;20503;-77
2021/04/11 04:49:14;;;;;;;1.42;1.33;;;;;;;;;;5084153;28;20664;-76
2021/04/11 04:51:50;;;;;;;1.10;1.08;;;;;;;;;;5089397;28;20516;-76
2021/04/11 04:54:28;;;;;;;2.22;1.85;;;;;;;;;;5089633;28;20081;-76
2021/04/11 04:57:01;;;;;;;1.02;1.02;;;;;;;;;;5089518;28;20017;-76
2021/04/11 04:59:33;;;;;;;1.50;1.27;;;;;;;;;;5090070;28;20046;-76
2021/04/11 05:02:02;;;;;;;5.22;2.17;;;;;;;;;;5088432;28;20027;-75
2021/04/11 05:04:30;;;;;;;1.92;1.50;;;;;;;;;;5089576;28;20055;-76
2021/04/11 05:07:03;;;;;;;1.88;1.48;;;;;;;;;;5088532;28;20407;-76
2021/04/11 05:09:29;;;;;;;;;;;;;;;;;;5090103;28;20107;-76
2021/04/11 05:12:03;;;;;;;1.77;1.35;;;;;;;;;;5088887;28;19999;-76
2021/04/11 05:14:30;;;;;;;0.93;0.93;;;;;;;;;;5090159;28;20032;-76
2021/04/11 05:17:01;;;;;;;1.50;1.40;;;;;;;;;;5089557;28;20020;-75
2021/04/11 05:19:33;;;;;;;1.45;1.13;;;;;;;;;;5090076;28;20115;-76
2021/04/11 05:22:01;;;;;;;1.40;1.30;;;;;;;;;;5088564;28;20132;-75
2021/04/11 05:24:29;;;;;;;2.00;1.40;;;;;;;;;;5089611;28;20036;-76
2021/04/11 05:27:18;;;;;;;1.08;0.85;;;;;;;;;;5088881;28;20036;-76
2021/04/11 05:29:53;;;;;;;1.40;1.27;;;;;;;;;;5076072;28;20039;-76
2021/04/11 05:32:20;;;;;;;1.10;1.00;;;;;;;;;;5088563;28;20084;-76
2021/04/11 05:34:46;;;;;;;2.80;1.70;;;;;;;;;;5089108;28;20058;-76
2021/04/11 05:37:15;;;;;;;1.08;1.08;;;;;;;;;;5087169;28;20084;-76
2021/04/11 05:39:50;;;;;;;1.10;1.10;;;;;;;;;;5088414;28;20056;-76
2021/04/11 05:42:18;;;;;;;1.38;1.27;;;;;;;;;;5087860;28;20691;-76
2021/04/11 05:44:59;;;;;;;1.65;1.52;;;;;;;;;;5088843;28;20087;-76
2021/04/11 05:47:41;;;;;;;0.85;0.80;;;;;;;;;;5086704;28;20060;-76
2021/04/11 05:50:13;;;;;;;1.42;1.10;;;;;;;;;;5068850;28;20052;-76
2021/04/11 05:52:48;;;;;;;0.85;0.85;;;;;;;;;;5067301;28;20483;-76
2021/04/11 05:55:14;;;;;;;1.08;1.05;;;;;;;;;;5068037;28;20496;-76
2021/04/11 05:57:48;;;;;;;1.55;1.45;;;;;;;;;;5068419;28;20119;-76
2021/04/11 06:00:19;;;;;;;1.20;1.10;;;;;;;;;;5067801;28;20371;-76
2021/04/11 06:02:45;;;;;;;2.05;1.10;;;;;;;;;;5068287;28;20032;-76
2021/04/11 06:05:34;;;;;;;1.30;1.20;;;;;;;;;;5067054;28;20040;-76
2021/04/11 06:08:05;;;;;;;2.50;1.95;;;;;;;;;;5028791;28;20044;-76
2021/04/11 06:10:35;;;;;;;2.17;1.45;;;;;;;;;;5068796;28;20078;-76
2021/04/11 06:13:05;;;;;;;1.35;1.25;;;;;;;;;;5067095;28;20104;-76
2021/04/11 06:15:36;;;;;;;1.10;1.10;;;;;;;;;;5067923;28;20471;-76
2021/04/11 06:18:07;;;;;;;0.98;0.93;;;;;;;;;;5068024;28;20020;-76
2021/04/11 06:20:33;;;;;;;1.75;1.65;;;;;;;;;;5068141;28;20029;-76
2021/04/11 06:23:04;;;;;;;1.88;1.27;;;;;;;;;;5067140;28;20031;-76
2021/04/11 06:25:34;;;;;;;1.52;1.45;;;;;;;;;;5068419;28;20029;-76
2021/04/11 06:28:00;;;;;;;1.05;1.05;;;;;;;;;;5067727;28;20040;-76
2021/04/11 06:30:29;;;;;;;2.92;1.15;;;;;;;;;;5068364;28;20372;-76
2021/04/11 06:32:55;;;;;;;1.67;1.33;;;;;;;;;;5067483;28;20115;-76
2021/04/11 06:35:26;;;;;;;2.53;1.55;;;;;;;;;;5067057;28;20060;-76
2021/04/11 06:37:54;;;;;;;1.55;1.38;;;;;;;;;;5067529;28;20028;-76
2021/04/11 06:40:39;;;;;;;1.02;0.98;;;;;;;;;;5088152;28;20399;-76
2021/04/11 06:43:17;;;;;;;2.20;2.08;;;;;;;;;;5087019;28;20040;-76
2021/04/11 06:45:49;;;;;;;1.05;1.05;;;;;;;;;;5087530;28;20058;-76
2021/04/11 06:48:35;;;;;;;2.15;1.30;;;;;;;;;;5086843;28;20087;-76
2021/04/11 06:51:10;;;;;;;1.60;1.50;;;;;;;;;;5087770;28;20024;-76
2021/04/11 06:53:42;;;;;;;1.10;1.00;;;;;;;;;;5087522;28;20020;-76
2021/04/11 06:56:27;;;;;;;1.85;1.67;;;;;;;;;;5086556;28;20437;-76
2021/04/11 06:58:53;;;;;;;1.83;1.45;;;;;;;;;;5087585;28;20028;-76
2021/04/11 07:01:31;;;;;;;1.20;1.20;;;;;;;;;;5086968;28;20039;-76
2021/04/11 07:04:16;;;;;;;1.27;0.98;;;;;;;;;;5086889;28;20528;-75
2021/04/11 07:06:54;;;;;;;1.27;1.27;;;;;;;;;;5086858;28;20024;-76
2021/04/11 07:09:20;;;;;;;2.10;1.80;;;;;;;;;;5087266;28;20036;-76
2021/04/11 07:11:49;;;;;;;3.22;2.47;;;;;;;;;;5087537;28;20123;-76
2021/04/11 07:14:34;;;;;;;1.30;1.20;;;;;;;;;;5086735;28;20679;-75
2021/04/11 07:17:09;;;;;;;1.50;1.40;;;;;;;;;;5086321;28;20024;-75
2021/04/11 07:19:35;;;;;;;1.38;1.27;;;;;;;;;;5087926;28;20024;-76
2021/04/11 07:22:04;;;;;;;1.50;1.30;;;;;;;;;;5086682;28;20036;-75
2021/04/11 07:24:37;;;;;;;0.98;0.88;;;;;;;;;;5087126;28;20043;-75
2021/04/11 07:27:22;;;;;;;2.30;2.05;;;;;;;;;;5086903;28;20070;-75
2021/04/11 07:29:51;;;;;;;1.50;0.98;;;;;;;;;;5088653;28;20066;-75
2021/04/11 07:32:20;;;;;;;2.47;1.77;;;;;;;;;;5086460;28;20135;-75
2021/04/11 07:34:54;;;;;;;1.58;1.33;;;;;;;;;;5087214;28;20718;-76
2021/04/11 07:37:33;;;;;;;2.10;2.00;;;;;;;;;;5085792;28;20024;-75
2021/04/11 07:40:01;;;;;;;1.45;1.45;;;;;;;;;;5086453;28;20044;-74
2021/04/11 07:42:30;;;;;;;1.70;1.10;;;;;;;;;;5087422;28;20498;-76
2021/04/11 07:45:09;;;;;;;1.23;1.13;;;;;;;;;;5087213;28;20024;-75
2021/04/11 07:47:38;;;;;;;1.67;1.02;;;;;;;;;;5086790;28;20411;-76
2021/04/11 07:50:20;;;;;;;1.70;1.42;;;;;;;;;;5086972;28;20024;-75
2021/04/11 07:52:58;;;;;;;1.10;1.10;;;;;;;;;;5087504;28;20032;-75
2021/04/11 07:55:24;;;;;;;4.15;1.55;;;;;;;;;;5087007;28;20028;-75
2021/04/11 07:58:09;;;;;;;1.35;1.23;;;;;;;;;;5087530;28;20455;-76
2021/04/11 08:01:10;;;;;;;1.85;1.38;;;;;;;;;;5084414;28;20054;-75
2021/04/11 08:03:54;;;;;;;1.40;1.30;;;;;;;;;;5002948;28;20042;-75
2021/04/11 08:06:20;;;;;;;0.80;0.80;;;;;;;;;;5078040;28;20138;-75
2021/04/11 08:09:10;;;;;;;1.45;1.30;;;;;;;;;;5084756;28;20107;-75
2021/04/11 08:11:36;;;;;;;1.35;1.23;;;;;;;;;;5085598;28;20081;-75
2021/04/11 08:14:20;;;;;;;1.23;1.20;;;;;;;;;;5085247;28;20024;-75
2021/04/11 08:16:46;;;;;;;1.92;1.70;;;;;;;;;;5089329;28;20028;-75
2021/04/11 08:19:21;;;;;;;1.88;1.35;;;;;;;;;;5089730;28;20024;-75
2021/04/11 08:22:06;;;;;;;0.73;0.73;;;;;;;;;;5088913;28;20271;-75
2021/04/11 08:24:32;;;;;;;1.20;1.10;;;;;;;;;;5089762;28;20028;-75
2021/04/11 08:27:02;;;;;;;1.17;1.08;;;;;;;;;;5088859;28;20110;-75
2021/04/11 08:29:31;;;;;;;4.05;1.75;;;;;;;;;;5090564;28;20240;-75
2021/04/11 08:32:15;;;;;;;1.42;1.33;;;;;;;;;;5089404;28;20051;-75
2021/04/11 08:34:41;;;;;;;0.80;0.80;;;;;;;;;;5088931;28;20058;-75
2021/04/11 08:37:27;;;;;;;1.58;1.00;;;;;;;;;;5087430;28;20498;-75
2021/04/11 08:40:00;;;;;;;2.05;1.52;;;;;;;;;;5091132;28;20200;-75
2021/04/11 08:42:26;;;;;;;;;;;;;;;;;;5090068;28;20060;-76
2021/04/11 08:45:11;;;;;;;1.08;0.98;;;;;;;;;;5089713;28;19939;-76
2021/04/11 08:47:37;;;;;;;2.15;1.13;;;;;;;;;;5090432;28;20070;-76
2021/04/11 08:50:16;;;;;;;1.60;1.00;;;;;;;;;;5089368;28;20043;-75
2021/04/11 08:52:48;;;;;;;1.30;1.20;;;;;;;;;;5089575;28;20124;-75
2021/04/11 08:55:14;;;;;;;0.73;0.73;;;;;;;;;;5088716;28;20042;-75
2021/04/11 08:57:40;;;;;;;1.60;1.02;;;;;;;;;;5089289;28;20039;-75
2021/04/11 09:00:25;;;;;;;0.82;0.77;;;;;;;;;;5089388;28;20407;-75
2021/04/11 09:03:09;;;;;;;1.00;1.00;;;;;;;;;;5089450;28;20590;-75
2021/04/11 09:05:47;;;;;;;0.70;0.70;;;;;;;;;;5088788;28;20035;-76
2021/04/11 09:08:17;;;;;;;0.75;0.75;;;;;;;;;;5088228;28;20495;-75
2021/04/11 09:10:49;;;;;;;0.93;0.85;;;;;;;;;;5089821;28;20024;-76
2021/04/11 09:13:15;;;;;;;0.85;0.70;;;;;;;;;;5088948;28;21270;-76
2021/04/11 09:15:45;;;;;;;0.85;0.85;;;;;;;;;;5089284;28;20115;-76
2021/04/11 09:18:30;;;;;;;1.15;1.05;;;;;;;;;;5088497;28;20024;-75
2021/04/11 09:21:14;;;;;;;0.38;0.38;;;;;;;;;;5088819;28;20231;-74
2021/04/11 09:23:40;;;;;;;0.40;0.40;;;;;;;;;;5089107;28;20031;-75
2021/04/11 09:26:09;;;;;;;1.70;1.23;;;;;;;;;;5087550;28;20364;-75
2021/04/11 09:29:02;;;;;;;1.38;0.82;;;;;;;;;;5088675;28;20436;-75
2021/04/11 09:31:30;;;;;;;0.60;0.60;;;;;;;;;;5057723;28;20062;-76
2021/04/11 09:34:03;;;;;;;0.60;0.60;;;;;;;;;;5087784;28;20119;-75
2021/04/11 09:36:32;;;;;;;1.20;1.10;;;;;;;;;;5087978;28;20028;-76
2021/04/11 09:39:17;;;;;;;0.95;0.70;;;;;;;;;;5087802;28;20079;-75
2021/04/11 09:41:51;;;;;;;1.08;0.98;;;;;;;;;;5089160;28;20035;-76
2021/04/11 09:44:37;;;;;;;0.77;0.77;;;;;;;;;;5088465;28;20038;-76
2021/04/11 09:47:18;;;;;;;0.77;0.77;;;;;;;;;;5046713;28;20482;-75
2021/04/11 09:50:03;;;;;;;0.55;0.55;;;;;;;;;;5069177;28;20119;-76
2021/04/11 09:52:29;;;;;;;0.45;0.45;;;;;;;;;;5068559;28;20027;-75
2021/04/11 09:55:07;;;;;;;0.30;0.30;;;;;;;;;;5068146;28;20070;-75
2021/04/11 09:57:53;;;;;;;0.95;0.50;;;;;;;;;;5068387;28;20049;-76
2021/04/11 10:00:34;;;;;;;0.77;0.73;;;;;;;;;;5068017;28;20074;-76
2021/04/11 10:03:15;;;;;;;1.63;1.33;;;;;;;;;;5067511;28;20026;-75
2021/04/11 10:05:49;;;;;;;0.85;0.85;;;;;;;;;;5067847;28;20024;-75
2021/04/11 10:08:30;;;;;;;1.70;1.10;;;;;;;;;;5066452;28;20040;-75
2021/04/11 10:11:14;;;;;;;0.80;0.80;;;;;;;;;;5067988;28;20517;-75
2021/04/11 10:13:52;;;;;;;0.90;0.80;;;;;;;;;;5068587;28;20020;-75
2021/04/11 10:16:27;;;;;;;0.30;0.30;;;;;;;;;;5066856;28;20082;-75
2021/04/11 10:19:04;;;;;;;0.50;0.50;;;;;;;;;;5068398;28;20024;-75
2021/04/11 10:21:36;;;;;;;0.50;0.50;;;;;;;;;;5067807;28;20025;-76
2021/04/11 10:24:02;;;;;;;1.27;1.17;;;;;;;;;;5066793;28;20035;-76
2021/04/11 10:26:36;;;;;;;0.40;0.40;;;;;;;;;;5068286;28;20021;-76
2021/04/11 10:29:02;;;;;;;;;;;;;;;;;;5067445;28;20430;-75
2021/04/11 10:31:32;;;;;;;0.70;0.50;;;;;;;;;;5067320;28;19957;-76
2021/04/11 10:34:12;;;;;;;0.60;0.60;;;;;;;;;;5066603;28;20059;-74
2021/04/11 10:37:01;;;;;;;0.60;0.45;;;;;;;;;;5067090;28;20437;-76
2021/04/11 10:39:36;;;;;;;0.85;0.50;;;;;;;;;;5082110;28;20086;-75
2021/04/11 10:42:20;;;;;;;0.70;0.60;;;;;;;;;;5087354;28;20509;-75
2021/04/11 10:44:59;;;;;;;0.95;0.40;;;;;;;;;;5087908;28;20431;-76
2021/04/11 10:47:31;;;;;;;0.40;0.40;;;;;;;;;;5087273;28;20071;-75
2021/04/11 10:50:23;;;;;;;0.60;0.60;;;;;;;;;;5088068;28;20106;-75
2021/04/11 10:52:55;;;;;;;1.02;0.90;;;;;;;;;;5082684;28;20044;-76
2021/04/11 10:55:27;;;;;;;0.40;0.40;;;;;;;;;;5086296;28;20050;-76
2021/04/11 10:57:59;;;;;;;0.40;0.40;;;;;;;;;;5087249;28;20107;-75
2021/04/11 11:00:30;;;;;;;0.60;0.57;;;;;;;;;;5087586;28;20119;-75
2021/04/11 11:03:06;;;;;;;0.30;0.30;;;;;;;;;;5087474;28;20028;-75
2021/04/11 11:05:39;;;;;;;0.85;0.80;;;;;;;;;;5087055;28;20486;-76
2021/04/11 11:08:24;;;;;;;0.93;0.85;;;;;;;;;;5086202;28;20129;-76
2021/04/11 11:11:08;;;;;;;1.40;0.80;;;;;;;;;;5087568;28;20032;-76
2021/04/11 11:13:52;;;;;;;0.80;0.73;;;;;;;;;;5087103;28;20351;-75
2021/04/11 11:16:27;;;;;;;0.55;0.55;;;;;;;;;;5086244;28;20056;-75
2021/04/11 11:19:01;;;;;;;0.40;0.40;;;;;;;;;;5088143;28;20024;-76
2021/04/11 11:21:37;;;;;;;0.52;0.30;;;;;;;;;;5087280;28;20020;-76
2021/04/11 11:24:03;;;;;;;0.50;0.50;;;;;;;;;;5086651;28;20201;-75
2021/04/11 11:26:41;;;;;;;0.63;0.63;;;;;;;;;;5087521;28;20445;-76
2021/04/11 11:29:26;;;;;;;0.40;0.40;;;;;;;;;;5086866;28;20107;-75
2021/04/11 11:32:04;;;;;;;0.40;0.40;;;;;;;;;;5086815;28;20456;-76
2021/04/11 11:34:43;;;;;;;0.75;0.60;;;;;;;;;;5086504;28;20035;-76
2021/04/11 11:37:15;;;;;;;0.43;0.43;;;;;;;;;;5084813;28;20498;-76
2021/04/11 11:40:00;;;;;;;0.40;0.40;;;;;;;;;;5086858;28;20048;-76
2021/04/11 11:42:38;;;;;;;1.42;0.30;;;;;;;;;;5086588;28;20040;-75
2021/04/11 11:45:26;;;;;;;0.38;0.38;;;;;;;;;;5086206;28;20060;-75
2021/04/11 11:48:07;;;;;;;0.30;0.30;;;;;;;;;;5081386;28;20021;-76
2021/04/11 11:50:36;;;;;;;0.40;0.35;;;;;;;;;;5069933;28;20127;-76
2021/04/11 11:53:04;;;;;;;0.50;0.50;;;;;;;;;;5070654;28;20029;-75
2021/04/11 11:55:39;;;;;;;0.90;0.52;;;;;;;;;;5069689;28;20405;-76
2021/04/11 11:58:05;;;;;;;0.50;0.50;;;;;;;;;;5070170;28;20028;-75
2021/04/11 12:00:54;;;;;;;0.30;0.30;;;;;;;;;;5070585;28;20147;-76
2021/04/11 12:03:20;;;;;;;0.60;0.60;;;;;;;;;;5059822;28;20039;-76
2021/04/11 12:06:04;;;;;;;0.77;0.47;;;;;;;;;;5070670;28;20402;-76
2021/04/11 12:08:33;;;;;;;0.40;0.40;;;;;;;;;;5069601;28;20123;-76
2021/04/11 12:11:01;;;;;;;0.30;0.20;;;;;;;;;;5069028;28;20032;-75
2021/04/11 12:13:36;;;;;;;1.50;0.60;;;;;;;;;;5069897;28;20395;-76
2021/04/11 12:16:21;;;;;;;0.43;0.40;;;;;;;;;;5069733;28;20029;-76
2021/04/11 12:18:50;;;;;;;0.40;0.40;;;;;;;;;;5070186;28;20107;-76
2021/04/11 12:21:20;;;;;;;0.40;0.38;;;;;;;;;;5069519;28;20195;-75
2021/04/11 12:24:01;;;;;;;0.68;0.60;;;;;;;;;;5069700;28;20043;-76
2021/04/11 12:26:30;;;;;;;0.30;0.30;;;;;;;;;;5070174;28;20029;-76
2021/04/11 12:29:04;;;;;;;0.50;0.35;;;;;;;;;;5069834;28;20041;-75
2021/04/11 12:31:32;;;;;;;0.30;0.30;;;;;;;;;;5069806;28;20028;-76
2021/04/11 12:34:06;;;;;;;0.52;0.40;;;;;;;;;;5069390;28;20437;-75
2021/04/11 12:36:51;;;;;;;0.45;0.45;;;;;;;;;;5069667;28;20039;-76
2021/04/11 12:39:21;;;;;;;0.88;0.38;;;;;;;;;;5082298;28;20048;-75
2021/04/11 12:42:02;;;;;;;0.57;0.50;;;;;;;;;;5089787;28;20117;-76
2021/04/11 12:44:28;;;;;;;0.65;0.40;;;;;;;;;;5090066;28;20028;-76
2021/04/11 12:47:05;;;;;;;0.40;0.40;;;;;;;;;;5089407;28;20097;-75
2021/04/11 12:49:50;;;;;;;0.70;0.40;;;;;;;;;;5089881;28;20028;-76
2021/04/11 12:52:27;;;;;;;0.40;0.40;;;;;;;;;;5089123;28;20111;-76
2021/04/11 12:54:58;;;;;;;0.73;0.73;;;;;;;;;;5090177;28;20105;-75
2021/04/11 12:57:24;;;;;;;0.30;0.30;;;;;;;;;;5089529;28;20021;-76
2021/04/11 13:00:06;;;;;;;0.57;0.50;;;;;;;;;;5089254;28;20467;-76
2021/04/11 13:02:45;;;;;;;0.80;0.80;;;;;;;;;;5089570;28;20105;-76
2021/04/11 13:05:33;;;;;;;0.63;0.40;;;;;;;;;;5088508;28;20047;-76
2021/04/11 13:08:06;;;;;;;0.50;0.45;;;;;;;;;;5088281;28;20040;-76
2021/04/11 13:10:40;;;;;;;0.38;0.38;;;;;;;;;;5090015;28;20377;-76
2021/04/11 13:13:06;;;;;;;0.57;0.57;;;;;;;;;;5088326;28;20459;-76
2021/04/11 13:15:36;;;;;;;0.40;0.40;;;;;;;;;;5089390;28;20077;-76
2021/04/11 13:18:05;;;;;;;0.82;0.50;;;;;;;;;;5089264;28;20060;-75
2021/04/11 13:20:48;;;;;;;0.43;0.43;;;;;;;;;;5088807;28;20336;-76
2021/04/11 13:23:14;;;;;;;;;;;;;;;;;;5089372;28;20035;-76
2021/04/11 13:25:42;;;;;;;0.40;0.30;;;;;;;;;;5089974;28;19904;-76
2021/04/11 13:28:14;;;;;;;0.20;0.20;;;;;;;;;;5088733;28;20107;-76
2021/04/11 13:30:46;;;;;;;0.65;0.52;;;;;;;;;;5089645;28;20027;-76
2021/04/11 13:33:20;;;;;;;0.97;0.40;;;;;;;;;;5088428;28;20031;-76
2021/04/11 13:35:53;;;;;;;0.45;0.40;;;;;;;;;;5088814;28;20039;-76
2021/04/11 13:38:22;;;;;;;0.28;0.28;;;;;;;;;;5087396;28;20091;-76
2021/04/11 13:40:49;;;;;;;0.55;0.50;;;;;;;;;;5089270;28;20464;-76
2021/04/11 13:43:28;;;;;;;0.60;0.40;;;;;;;;;;5087794;28;20043;-75
2021/04/11 13:45:54;;;;;;;0.30;0.30;;;;;;;;;;5089492;28;20085;-75
2021/04/11 13:48:20;;;;;;;0.25;0.20;;;;;;;;;;5088393;28;20264;-75
2021/04/11 13:50:46;;;;;;;1.42;1.13;;;;;;;;;;5089143;28;20048;-75
2021/04/11 13:53:27;;;;;;;0.50;0.50;;;;;;;;;;5088031;28;20175;-75
2021/04/11 13:55:53;;;;;;;0.20;0.20;;;;;;;;;;5088734;28;20056;-74
2021/04/11 13:58:22;;;;;;;0.57;0.50;;;;;;;;;;5087445;28;20032;-75
2021/04/11 14:00:51;;;;;;;0.50;0.50;;;;;;;;;;5088354;28;20039;-75
2021/04/11 14:03:24;;;;;;;0.40;0.40;;;;;;;;;;5087360;28;20244;-75
2021/04/11 14:05:56;;;;;;;0.28;0.28;;;;;;;;;;5087944;28;20030;-75
2021/04/11 14:08:40;;;;;;;0.63;0.50;;;;;;;;;;5087362;28;20121;-75
2021/04/11 14:11:08;;;;;;;0.60;0.50;;;;;;;;;;5087478;28;20059;-75
2021/04/11 14:13:41;;;;;;;0.75;0.45;;;;;;;;;;5088017;28;20024;-75
2021/04/11 14:16:21;;;;;;;0.45;0.45;;;;;;;;;;5087511;28;20118;-75
2021/04/11 14:18:53;;;;;;;0.47;0.47;;;;;;;;;;5087794;28;20103;-75
2021/04/11 14:21:39;;;;;;;1.45;0.68;;;;;;;;;;5087042;28;20034;-75
2021/04/11 14:24:13;;;;;;;0.85;0.30;;;;;;;;;;5086875;28;20028;-75
2021/04/11 14:26:42;;;;;;;0.95;0.82;;;;;;;;;;5086683;28;20490;-75
2021/04/11 14:29:23;;;;;;;0.60;0.40;;;;;;;;;;5087576;28;20059;-75
2021/04/11 14:31:57;;;;;;;0.63;0.60;;;;;;;;;;5086966;28;20088;-75
2021/04/11 14:34:41;;;;;;;0.80;0.50;;;;;;;;;;5087640;28;20024;-75
2021/04/11 14:37:19;;;;;;;0.22;0.22;;;;;;;;;;5085610;28;20028;-75
2021/04/11 14:39:51;;;;;;;0.57;0.57;;;;;;;;;;5087549;28;20280;-75
2021/04/11 14:42:25;;;;;;;0.75;0.75;;;;;;;;;;5087120;28;20436;-75
2021/04/11 14:44:54;;;;;;;0.93;0.63;;;;;;;;;;5087761;28;20582;-75
2021/04/11 14:47:36;;;;;;;0.45;0.45;;;;;;;;;;5086862;28;20530;-75
2021/04/11 14:50:26;;;;;;;1.13;0.55;;;;;;;;;;5087061;28;20483;-74
2021/04/11 14:52:55;;;;;;;0.40;0.40;;;;;;;;;;5077138;28;20044;-75
2021/04/11 14:55:41;;;;;;;0.40;0.40;;;;;;;;;;5087380;28;20144;-75
2021/04/11 14:58:23;;;;;;;0.32;0.30;;;;;;;;;;5086615;28;20040;-75
2021/04/11 15:01:08;;;;;;;0.70;0.50;;;;;;;;;;5086910;28;20031;-75
2021/04/11 15:03:53;;;;;;;0.50;0.50;;;;;;;;;;5087477;28;20126;-75
2021/04/11 15:06:34;;;;;;;0.60;0.47;;;;;;;;;;5086038;28;20157;-75
2021/04/11 15:09:21;;;;;;;0.50;0.50;;;;;;;;;;5085855;28;20043;-75
2021/04/11 15:12:11;;;;;;;0.85;0.85;;;;;;;;;;5086949;28;20081;-75
2021/04/11 15:14:37;;;;;;;0.55;0.55;;;;;;;;;;5087363;28;20032;-75
2021/04/11 15:17:17;;;;;;;0.47;0.47;;;;;;;;;;5085967;28;20406;-75